Time;durP1;ratioP1;P1;durP2;ratioP2;P2;SDS_P1;SDS_P2;PMS_P1;PMS_P2;Temp;Humidity;BMP_temperature;BMP_pressure;BME280_temperature;BME280_humidity;BME280_pressure;Samples;Min_cycle;Max_cycle;Signal;HPM_P1;HPM_P2
2023/10/26 00:00:28;;;;;;;34.03;21.38;;;6.90;99.90;;;;;;5113314;28;20102;-80
2023/10/26 00:02:53;;;;;;;37.78;22.13;;;6.90;99.90;;;;;;5145535;27;20028;-76
2023/10/26 00:05:19;;;;;;;38.72;21.60;;;6.90;99.90;;;;;;5113574;28;20024;-75
2023/10/26 00:07:44;;;;;;;41.88;23.27;;;6.90;99.90;;;;;;5113320;28;20027;-76
2023/10/26 00:10:11;;;;;;;34.40;20.10;;;6.90;99.90;;;;;;5113508;28;20533;-78
2023/10/26 00:12:36;;;;;;;30.98;18.83;;;6.90;99.90;;;;;;5112005;28;20016;-76
2023/10/26 00:15:02;;;;;;;34.78;21.05;;;6.90;99.90;;;;;;5111988;28;20075;-76
2023/10/26 00:17:28;;;;;;;34.58;19.83;;;6.90;99.90;;;;;;5111817;28;20024;-77
2023/10/26 00:19:54;;;;;;;32.05;19.30;;;6.80;99.90;;;;;;5112172;28;20050;-77
2023/10/26 00:22:23;;;;;;;33.30;19.30;;;6.80;99.90;;;;;;5111798;28;20035;-81
2023/10/26 00:24:50;;;;;;;36.08;23.05;;;6.70;99.90;;;;;;5113341;28;20028;-77
2023/10/26 00:27:16;;;;;;;35.72;20.95;;;6.80;99.90;;;;;;5111880;28;20478;-81
2023/10/26 00:29:42;;;;;;;37.58;21.15;;;6.70;99.90;;;;;;5111577;28;20109;-77
2023/10/26 00:32:08;;;;;;;33.17;20.27;;;6.80;99.90;;;;;;5113131;28;20062;-81
2023/10/26 00:34:34;;;;;;;34.10;20.35;;;6.70;99.90;;;;;;5111785;28;20028;-81
2023/10/26 00:37:00;;;;;;;31.67;20.30;;;6.70;99.90;;;;;;5111837;28;20054;-76
2023/10/26 00:39:25;;;;;;;38.40;20.92;;;6.60;99.90;;;;;;5113292;28;20093;-81
2023/10/26 00:41:55;;;;;;;35.33;20.80;;;6.70;99.90;;;;;;5111330;28;20067;-81
2023/10/26 00:44:22;;;;;;;33.47;21.15;;;6.60;99.90;;;;;;5113128;28;20077;-76
2023/10/26 00:46:49;;;;;;;34.97;21.08;;;6.60;99.90;;;;;;5111692;28;20103;-81
2023/10/26 00:49:15;;;;;;;35.10;20.17;;;6.60;99.90;;;;;;5111916;28;20024;-78
2023/10/26 00:51:45;;;;;;;33.38;18.30;;;6.60;99.90;;;;;;5112790;28;20737;-81
2023/10/26 00:54:11;;;;;;;28.25;18.00;;;6.60;99.90;;;;;;5112914;28;20020;-77
2023/10/26 00:56:37;;;;;;;30.73;18.58;;;6.50;99.90;;;;;;5111400;28;20394;-76
2023/10/26 00:59:03;;;;;;;26.83;16.55;;;6.50;99.90;;;;;;5106446;28;20023;-81
2023/10/26 01:01:32;;;;;;;30.10;18.42;;;6.50;99.90;;;;;;5112453;28;20031;-76
2023/10/26 01:04:00;;;;;;;30.17;17.55;;;6.40;99.90;;;;;;5111499;28;20016;-77
2023/10/26 01:06:25;;;;;;;28.25;17.50;;;6.50;99.90;;;;;;5112892;28;20024;-81
2023/10/26 01:08:51;;;;;;;31.20;18.73;;;6.40;99.90;;;;;;5111263;28;20495;-81
2023/10/26 01:11:17;;;;;;;33.30;19.35;;;6.40;99.90;;;;;;5116224;28;20062;-76
2023/10/26 01:13:43;;;;;;;31.50;18.92;;;6.40;99.90;;;;;;5115636;28;20469;-77
2023/10/26 01:16:09;;;;;;;33.63;19.08;;;6.40;99.90;;;;;;5113089;28;20481;-76
2023/10/26 01:18:35;;;;;;;29.92;17.73;;;6.40;99.90;;;;;;5110288;28;20085;-81
2023/10/26 01:21:00;;;;;;;30.30;19.70;;;6.40;99.90;;;;;;5115253;28;20020;-77
2023/10/26 01:23:26;;;;;;;34.53;19.63;;;6.40;99.90;;;;;;5116723;28;20048;-81
2023/10/26 01:25:53;;;;;;;33.85;19.42;;;6.40;99.90;;;;;;5141585;27;20491;-81
2023/10/26 01:28:19;;;;;;;33.42;19.02;;;6.40;99.90;;;;;;5115508;28;20644;-76
2023/10/26 01:30:45;;;;;;;30.42;19.42;;;6.50;99.90;;;;;;5115279;28;20079;-77
2023/10/26 01:33:11;;;;;;;30.95;18.80;;;6.50;99.90;;;;;;5114918;28;20125;-77
2023/10/26 01:35:40;;;;;;;38.50;22.25;;;6.60;99.90;;;;;;5115209;28;20026;-81
2023/10/26 01:38:06;;;;;;;35.35;20.08;;;6.60;99.90;;;;;;5111442;28;20024;-77
2023/10/26 01:40:32;;;;;;;38.45;21.67;;;6.60;99.90;;;;;;5112831;28;20024;-81
2023/10/26 01:42:58;;;;;;;37.25;20.95;;;6.60;99.90;;;;;;5114684;28;20042;-81
2023/10/26 01:45:24;;;;;;;34.85;19.92;;;6.60;99.90;;;;;;5116252;28;20376;-81
2023/10/26 01:47:49;;;;;;;39.97;22.35;;;6.70;99.90;;;;;;5116245;27;20034;-81
2023/10/26 01:50:15;;;;;;;35.08;20.60;;;6.70;99.90;;;;;;5115985;28;20030;-81
2023/10/26 01:52:44;;;;;;;36.67;21.05;;;6.70;99.90;;;;;;5115039;28;20022;-81
2023/10/26 01:55:09;;;;;;;38.70;21.02;;;6.80;99.90;;;;;;5110306;28;20458;-76
2023/10/26 01:57:35;;;;;;;38.67;21.48;;;6.80;99.90;;;;;;5110049;28;20015;-77
2023/10/26 02:00:01;;;;;;;29.77;18.23;;;6.90;99.90;;;;;;5144300;27;20024;-81
2023/10/26 02:02:27;;;;;;;38.95;19.80;;;6.90;99.90;;;;;;5114090;28;20054;-76
2023/10/26 02:04:54;;;;;;;37.83;19.85;;;6.90;99.90;;;;;;5136173;27;20051;-80
2023/10/26 02:07:20;;;;;;;36.80;20.52;;;6.90;99.90;;;;;;5115996;28;20073;-76
2023/10/26 02:09:46;;;;;;;32.20;19.95;;;6.90;99.90;;;;;;5115774;27;20027;-78
2023/10/26 02:12:11;;;;;;;34.80;20.42;;;7.00;99.90;;;;;;5115789;28;20024;-81
2023/10/26 02:14:37;;;;;;;36.22;21.75;;;7.00;99.90;;;;;;5114263;28;20172;-81
2023/10/26 02:17:04;;;;;;;32.75;19.42;;;7.00;99.90;;;;;;5115675;28;20099;-76
2023/10/26 02:19:29;;;;;;;35.55;20.40;;;7.00;99.90;;;;;;5114153;28;20015;-81
2023/10/26 02:21:55;;;;;;;34.25;20.60;;;7.00;99.90;;;;;;5114554;28;20571;-78
2023/10/26 02:24:21;;;;;;;39.88;21.38;;;7.10;99.90;;;;;;5114141;28;20022;-77
2023/10/26 02:26:46;;;;;;;32.42;19.88;;;7.10;99.90;;;;;;5114425;28;20059;-81
2023/10/26 02:29:12;;;;;;;33.63;19.60;;;7.10;99.90;;;;;;5115113;28;20370;-81
2023/10/26 02:31:37;;;;;;;33.13;19.33;;;7.10;99.90;;;;;;5115702;28;20030;-81
2023/10/26 02:34:03;;;;;;;29.55;17.73;;;7.10;99.90;;;;;;5115160;28;20384;-76
2023/10/26 02:36:29;;;;;;;32.35;18.55;;;7.20;99.90;;;;;;5115378;28;20027;-81
2023/10/26 02:38:55;;;;;;;27.63;17.90;;;7.20;99.90;;;;;;5115062;28;20016;-77
2023/10/26 02:41:20;;;;;;;29.67;18.83;;;7.20;99.90;;;;;;5114022;28;20032;-81
2023/10/26 02:43:46;;;;;;;26.63;16.95;;;7.20;99.90;;;;;;5113635;28;20016;-81
2023/10/26 02:46:12;;;;;;;25.42;16.58;;;7.30;99.90;;;;;;5115336;28;20028;-80
2023/10/26 02:48:37;;;;;;;25.80;15.93;;;7.20;99.90;;;;;;5114960;28;20419;-77
2023/10/26 02:51:03;;;;;;;29.70;16.85;;;7.30;99.90;;;;;;5113733;28;20015;-81
2023/10/26 02:53:29;;;;;;;28.10;17.50;;;7.20;99.90;;;;;;5147726;27;20110;-77
2023/10/26 02:55:55;;;;;;;21.83;13.90;;;7.20;99.90;;;;;;5115042;28;20031;-76
2023/10/26 02:58:20;;;;;;;19.27;12.73;;;7.20;99.90;;;;;;5113391;28;20011;-82
2023/10/26 03:00:46;;;;;;;21.42;13.43;;;7.20;99.90;;;;;;5114920;28;20032;-77
2023/10/26 03:03:12;;;;;;;20.95;13.10;;;7.20;99.90;;;;;;5113220;28;20480;-81
2023/10/26 03:05:38;;;;;;;19.30;14.05;;;7.20;99.90;;;;;;5147696;27;20385;-77
2023/10/26 03:08:04;;;;;;;21.65;13.80;;;7.10;99.90;;;;;;5114682;28;20082;-81
2023/10/26 03:10:30;;;;;;;19.48;13.27;;;7.10;99.90;;;;;;5114792;28;20055;-77
2023/10/26 03:12:56;;;;;;;18.27;12.95;;;7.10;99.90;;;;;;5113155;28;20058;-81
2023/10/26 03:15:21;;;;;;;27.10;14.45;;;7.10;99.90;;;;;;5147676;27;20457;-77
2023/10/26 03:17:47;;;;;;;21.73;13.98;;;7.10;99.90;;;;;;5113011;28;20027;-82
2023/10/26 03:20:13;;;;;;;22.63;14.27;;;7.10;99.90;;;;;;5114495;28;20100;-81
2023/10/26 03:22:38;;;;;;;19.58;12.23;;;7.10;99.90;;;;;;5114280;28;20040;-81
2023/10/26 03:25:07;;;;;;;20.15;12.40;;;7.00;99.90;;;;;;5113057;28;20016;-76
2023/10/26 03:27:33;;;;;;;21.33;15.68;;;7.00;99.90;;;;;;5112663;28;20015;-81
2023/10/26 03:29:58;;;;;;;22.77;15.20;;;7.00;99.90;;;;;;5140552;27;20051;-77
2023/10/26 03:32:24;;;;;;;25.50;15.40;;;7.00;99.90;;;;;;5112754;28;20481;-77
2023/10/26 03:34:50;;;;;;;22.55;14.65;;;6.90;99.90;;;;;;5114241;28;20102;-77
2023/10/26 03:37:16;;;;;;;25.75;14.75;;;6.90;99.90;;;;;;5112763;28;20008;-77
2023/10/26 03:39:42;;;;;;;23.27;14.27;;;6.90;99.90;;;;;;5112774;28;20019;-81
2023/10/26 03:42:07;;;;;;;20.52;13.02;;;6.90;99.90;;;;;;5113989;28;20039;-82
2023/10/26 03:44:33;;;;;;;21.05;12.90;;;6.90;99.90;;;;;;5114160;28;20353;-76
2023/10/26 03:46:59;;;;;;;23.73;12.98;;;6.90;99.90;;;;;;5113497;28;20464;-76
2023/10/26 03:49:24;;;;;;;20.30;13.63;;;6.90;99.90;;;;;;5113747;28;20026;-81
2023/10/26 03:51:50;;;;;;;21.33;12.63;;;6.90;99.90;;;;;;5113590;28;20027;-81
2023/10/26 03:54:16;;;;;;;21.08;13.27;;;6.90;99.90;;;;;;5113840;28;20024;-82
2023/10/26 03:56:42;;;;;;;21.30;12.77;;;6.90;99.90;;;;;;5113523;28;20024;-81
2023/10/26 03:59:07;;;;;;;20.92;13.50;;;6.90;99.90;;;;;;5114037;28;20031;-81
2023/10/26 04:01:35;;;;;;;20.75;13.90;;;6.90;99.90;;;;;;5113155;28;20043;-81
2023/10/26 04:04:02;;;;;;;20.23;13.65;;;7.00;99.90;;;;;;5142013;27;20035;-78
2023/10/26 04:06:30;;;;;;;18.58;13.18;;;7.00;99.90;;;;;;5113595;28;20015;-81
2023/10/26 04:08:56;;;;;;;19.77;12.88;;;7.10;99.90;;;;;;5113478;28;20019;-81
2023/10/26 04:11:23;;;;;;;19.40;13.13;;;7.10;99.90;;;;;;5113478;28;20046;-81
2023/10/26 04:13:48;;;;;;;20.15;13.80;;;7.10;99.90;;;;;;5112438;28;20499;-76
2023/10/26 04:16:15;;;;;;;17.42;13.27;;;7.10;99.90;;;;;;5113340;28;20016;-81
2023/10/26 04:18:40;;;;;;;19.40;14.07;;;7.20;99.90;;;;;;5113675;28;20015;-77
2023/10/26 04:21:06;;;;;;;22.63;15.52;;;7.20;99.90;;;;;;5111932;28;20034;-77
2023/10/26 04:23:32;;;;;;;25.80;15.80;;;7.20;99.90;;;;;;5112143;28;20388;-77
2023/10/26 04:25:57;;;;;;;26.35;17.38;;;7.20;99.90;;;;;;5113146;28;20064;-81
2023/10/26 04:28:24;;;;;;;20.27;14.70;;;7.20;99.90;;;;;;5112240;28;20043;-81
2023/10/26 04:30:50;;;;;;;22.42;14.20;;;7.20;99.90;;;;;;5144696;27;20043;-81
2023/10/26 04:33:17;;;;;;;22.90;14.20;;;7.20;99.90;;;;;;5113252;28;20018;-81
2023/10/26 04:35:44;;;;;;;24.17;14.55;;;7.20;99.90;;;;;;5113064;28;20103;-77
2023/10/26 04:38:09;;;;;;;20.63;12.98;;;7.20;99.90;;;;;;5112141;28;20035;-77
2023/10/26 04:40:39;;;;;;;21.63;12.73;;;7.20;99.90;;;;;;5111755;28;20015;-76
2023/10/26 04:43:06;;;;;;;19.38;13.43;;;7.20;99.90;;;;;;5145079;27;20020;-77
2023/10/26 04:45:32;;;;;;;20.00;12.88;;;7.20;99.90;;;;;;5111144;28;20045;-76
2023/10/26 04:47:58;;;;;;;18.15;12.65;;;7.20;99.90;;;;;;5112869;28;20031;-81
2023/10/26 04:50:25;;;;;;;17.67;12.07;;;7.20;99.90;;;;;;5111328;28;20027;-81
2023/10/26 04:52:51;;;;;;;21.25;14.95;;;7.20;99.90;;;;;;5142834;27;20144;-77
2023/10/26 04:55:17;;;;;;;47.70;30.70;;;7.20;99.90;;;;;;5113003;28;20091;-77
2023/10/26 04:57:42;;;;;;;49.90;34.63;;;7.20;99.90;;;;;;5112679;28;20083;-81
2023/10/26 05:00:09;;;;;;;24.67;16.33;;;7.20;99.90;;;;;;5113010;28;20028;-77
2023/10/26 05:02:36;;;;;;;25.58;17.35;;;7.20;99.90;;;;;;5111419;28;20027;-82
2023/10/26 05:05:03;;;;;;;21.73;15.32;;;7.20;99.90;;;;;;5112853;28;20039;-82
2023/10/26 05:07:30;;;;;;;25.23;15.93;;;7.20;99.90;;;;;;5111874;28;20038;-81
2023/10/26 05:09:56;;;;;;;27.55;16.90;;;7.20;99.90;;;;;;5111626;28;20617;-81
2023/10/26 05:12:21;;;;;;;26.65;16.85;;;7.20;99.90;;;;;;5097817;28;20032;-76
2023/10/26 05:14:47;;;;;;;22.70;15.52;;;7.30;99.90;;;;;;5113029;28;20496;-78
2023/10/26 05:17:13;;;;;;;18.00;11.82;;;7.20;99.90;;;;;;5112633;28;20020;-82
2023/10/26 05:19:39;;;;;;;14.65;11.30;;;7.30;99.90;;;;;;5112726;28;20492;-78
2023/10/26 05:22:04;;;;;;;17.83;11.88;;;7.30;99.90;;;;;;5110091;28;20496;-81
2023/10/26 05:24:31;;;;;;;12.77;9.85;;;7.30;99.90;;;;;;5101937;28;20039;-81
2023/10/26 05:26:57;;;;;;;21.70;15.43;;;7.30;99.90;;;;;;5101881;28;20058;-81
2023/10/26 05:29:22;;;;;;;20.65;13.95;;;7.40;99.90;;;;;;5099105;28;20071;-77
2023/10/26 05:31:48;;;;;;;12.20;9.75;;;7.30;99.90;;;;;;5109440;28;20031;-82
2023/10/26 05:34:14;;;;;;;13.27;9.07;;;7.40;99.90;;;;;;5111591;28;20035;-81
2023/10/26 05:36:40;;;;;;;19.05;10.70;;;7.40;99.90;;;;;;5104822;28;20625;-81
2023/10/26 05:39:06;;;;;;;13.93;10.07;;;7.50;99.90;;;;;;5104561;28;20054;-82
2023/10/26 05:41:33;;;;;;;13.55;9.70;;;7.40;99.90;;;;;;5105645;28;20396;-81
2023/10/26 05:43:58;;;;;;;15.82;9.43;;;7.40;99.90;;;;;;5109967;28;20102;-77
2023/10/26 05:46:25;;;;;;;10.32;7.68;;;7.50;99.90;;;;;;5111060;28;20106;-81
2023/10/26 05:48:50;;;;;;;14.02;9.88;;;7.60;99.90;;;;;;5112469;28;20122;-77
2023/10/26 05:51:16;;;;;;;15.13;9.27;;;7.60;99.90;;;;;;5111087;28;20512;-81
2023/10/26 05:53:42;;;;;;;14.07;9.43;;;7.70;99.90;;;;;;5112130;28;20030;-77
2023/10/26 05:56:08;;;;;;;11.20;9.50;;;7.70;99.90;;;;;;5110933;28;20024;-77
2023/10/26 05:58:34;;;;;;;18.45;12.05;;;7.70;99.90;;;;;;5114208;28;20012;-76
2023/10/26 06:01:00;;;;;;;16.50;13.50;;;7.70;99.90;;;;;;5113729;28;20020;-76
2023/10/26 06:03:26;;;;;;;16.52;11.13;;;7.70;99.90;;;;;;5107313;28;20028;-81
2023/10/26 06:06:00;;;;;;;12.02;10.07;;;7.70;99.90;;;;;;5114491;28;20052;-82
2023/10/26 06:08:26;;;;;;;13.98;10.27;;;7.80;99.90;;;;;;5114192;28;20047;-77
2023/10/26 06:10:52;;;;;;;16.35;11.48;;;7.80;99.90;;;;;;5135831;27;20515;-77
2023/10/26 06:13:17;;;;;;;17.70;11.13;;;7.80;99.90;;;;;;5113131;28;20500;-77
2023/10/26 06:15:43;;;;;;;16.20;11.80;;;7.90;99.90;;;;;;5104138;28;20032;-77
2023/10/26 06:18:10;;;;;;;17.02;12.27;;;7.90;99.90;;;;;;5110070;28;20031;-81
2023/10/26 06:20:36;;;;;;;19.50;13.10;;;7.90;99.90;;;;;;5113875;28;20028;-81
2023/10/26 06:23:02;;;;;;;24.67;14.82;;;8.00;99.90;;;;;;5111712;28;20076;-81
2023/10/26 06:25:28;;;;;;;25.88;15.80;;;8.10;99.90;;;;;;5100685;28;20020;-82
2023/10/26 06:27:55;;;;;;;29.85;16.67;;;8.10;99.90;;;;;;5110985;28;20024;-81
2023/10/26 06:30:20;;;;;;;20.17;13.55;;;8.20;99.90;;;;;;5115371;28;20055;-82
2023/10/26 06:32:46;;;;;;;12.25;8.52;;;8.20;99.90;;;;;;5114129;28;20032;-82
2023/10/26 06:35:12;;;;;;;10.50;7.18;;;8.30;99.90;;;;;;5104978;28;20028;-77
2023/10/26 06:37:38;;;;;;;7.97;5.47;;;8.30;99.90;;;;;;5113117;28;20061;-77
2023/10/26 06:40:06;;;;;;;7.05;3.90;;;8.30;99.90;;;;;;5110245;28;20084;-76
2023/10/26 06:42:32;;;;;;;11.07;5.93;;;8.40;99.90;;;;;;5113638;28;20402;-77
2023/10/26 06:44:58;;;;;;;11.80;5.25;;;8.40;99.90;;;;;;5112904;28;20027;-76
2023/10/26 06:47:24;;;;;;;8.15;4.43;;;8.50;99.90;;;;;;5107737;28;20381;-81
2023/10/26 06:49:50;;;;;;;7.07;4.03;;;8.60;99.90;;;;;;5113853;28;20020;-82
2023/10/26 06:52:15;;;;;;;7.20;4.25;;;8.60;99.90;;;;;;5108652;28;20070;-78
2023/10/26 06:54:41;;;;;;;9.68;4.55;;;8.60;99.90;;;;;;5113519;28;20020;-82
2023/10/26 06:57:06;;;;;;;7.60;3.92;;;8.70;99.90;;;;;;5109954;28;20036;-82
2023/10/26 06:59:32;;;;;;;6.70;4.10;;;8.80;99.90;;;;;;5112036;28;20515;-82
2023/10/26 07:01:58;;;;;;;6.03;3.65;;;8.80;99.90;;;;;;5113961;28;20040;-77
2023/10/26 07:04:23;;;;;;;6.50;4.20;;;8.80;99.90;;;;;;5095267;28;20035;-77
2023/10/26 07:06:49;;;;;;;5.60;3.65;;;8.90;99.90;;;;;;5131693;27;20024;-77
2023/10/26 07:09:15;;;;;;;5.50;3.55;;;9.00;99.90;;;;;;5112692;28;20119;-77
2023/10/26 07:11:42;;;;;;;6.35;3.50;;;9.00;99.90;;;;;;5113075;28;20469;-82
2023/10/26 07:14:08;;;;;;;5.25;3.70;;;9.10;99.90;;;;;;5114055;28;20031;-77
2023/10/26 07:16:34;;;;;;;9.93;4.05;;;9.10;99.90;;;;;;5139735;27;20417;-82
2023/10/26 07:18:59;;;;;;;5.85;4.40;;;9.10;99.90;;;;;;5116549;28;20065;-78
2023/10/26 07:21:26;;;;;;;6.80;3.72;;;9.20;99.90;;;;;;5111191;28;20020;-77
2023/10/26 07:23:53;;;;;;;4.32;3.25;;;9.20;99.90;;;;;;5113216;28;20054;-77
2023/10/26 07:26:19;;;;;;;6.63;4.13;;;9.20;99.90;;;;;;5113989;28;20496;-77
2023/10/26 07:28:44;;;;;;;4.95;3.50;;;9.20;99.90;;;;;;5111471;28;20028;-77
2023/10/26 07:31:17;;;;;;;9.38;4.43;;;9.20;99.90;;;;;;5110827;28;20413;-77
2023/10/26 07:33:43;;;;;;;6.80;3.95;;;9.30;99.90;;;;;;5093492;28;20077;-77
2023/10/26 07:36:10;;;;;;;6.10;3.53;;;9.30;99.90;;;;;;5112029;28;20028;-77
2023/10/26 07:38:35;;;;;;;6.22;3.60;;;9.30;99.90;;;;;;5110594;28;20053;-77
2023/10/26 07:41:03;;;;;;;5.03;3.70;;;9.40;99.90;;;;;;5110481;28;20020;-77
2023/10/26 07:43:29;;;;;;;7.03;4.10;;;9.50;99.90;;;;;;5106962;28;20171;-77
2023/10/26 07:45:55;;;;;;;8.25;3.92;;;9.60;99.90;;;;;;5110583;28;20035;-77
2023/10/26 07:48:21;;;;;;;6.63;3.60;;;9.60;99.90;;;;;;5110091;28;20559;-77
2023/10/26 07:50:46;;;;;;;9.05;4.63;;;9.70;99.90;;;;;;5103585;28;20032;-77
2023/10/26 07:53:15;;;;;;;8.75;4.20;;;9.80;99.90;;;;;;5104851;28;20035;-82
2023/10/26 07:55:40;;;;;;;5.50;3.92;;;9.80;99.90;;;;;;5111559;28;20023;-82
2023/10/26 07:58:06;;;;;;;3.75;3.20;;;9.90;99.90;;;;;;5111680;28;20461;-82
2023/10/26 08:00:32;;;;;;;7.43;3.42;;;10.00;99.90;;;;;;5102739;28;20022;-80
2023/10/26 08:02:58;;;;;;;7.28;3.92;;;10.00;99.90;;;;;;5111938;27;20031;-80
2023/10/26 08:05:24;;;;;;;5.80;4.07;;;10.10;99.90;;;;;;5110332;28;20023;-80
2023/10/26 08:07:51;;;;;;;5.15;4.15;;;10.10;99.90;;;;;;5111024;28;20080;-80
2023/10/26 08:10:16;;;;;;;5.97;3.53;;;10.10;99.90;;;;;;5112137;28;20480;-80
2023/10/26 08:12:42;;;;;;;4.90;3.42;;;10.20;99.90;;;;;;5113569;28;20031;-80
2023/10/26 08:15:08;;;;;;;4.63;3.53;;;10.20;99.90;;;;;;5108258;28;20060;-80
2023/10/26 08:17:35;;;;;;;6.07;4.25;;;10.20;99.90;;;;;;5113392;28;20380;-80
2023/10/26 08:20:04;;;;;;;6.47;4.63;;;10.20;99.90;;;;;;5110846;28;20030;-80
2023/10/26 08:22:31;;;;;;;6.45;3.90;;;10.20;99.90;;;;;;5113149;28;20119;-80
2023/10/26 08:24:57;;;;;;;6.15;4.22;;;10.30;99.90;;;;;;5111813;28;20016;-80
2023/10/26 08:27:23;;;;;;;7.18;4.30;;;10.30;99.90;;;;;;5111850;28;20213;-80
2023/10/26 08:29:50;;;;;;;8.13;4.50;;;10.30;99.90;;;;;;5112753;28;20484;-80
2023/10/26 08:32:15;;;;;;;7.47;4.78;;;10.30;99.90;;;;;;5100944;28;20472;-80
2023/10/26 08:34:41;;;;;;;6.70;4.82;;;10.20;99.90;;;;;;5113076;28;20020;-80
2023/10/26 08:37:07;;;;;;;7.07;4.75;;;10.20;99.90;;;;;;5113151;28;20067;-80
2023/10/26 08:39:33;;;;;;;6.05;4.95;;;10.20;99.90;;;;;;5112978;28;20111;-80
2023/10/26 08:42:01;;;;;;;5.70;4.53;;;10.20;99.90;;;;;;5111480;28;20032;-80
2023/10/26 08:44:28;;;;;;;7.35;4.55;;;10.20;99.90;;;;;;5111722;28;20445;-80
2023/10/26 08:47:05;;;;;;;7.28;4.63;;;10.20;99.90;;;;;;5112635;28;20020;-83
2023/10/26 08:49:31;;;;;;;6.07;3.75;;;10.20;99.90;;;;;;5111878;28;20031;-83
2023/10/26 08:51:58;;;;;;;6.90;4.70;;;10.20;99.90;;;;;;5111181;28;20016;-83
2023/10/26 08:54:26;;;;;;;5.70;3.83;;;10.20;99.90;;;;;;5112900;28;20477;-83
2023/10/26 08:56:51;;;;;;;5.90;4.13;;;10.30;99.90;;;;;;5111134;28;20027;-83
2023/10/26 08:59:17;;;;;;;4.88;4.03;;;10.40;99.90;;;;;;5111727;28;20024;-83
2023/10/26 09:01:46;;;;;;;4.53;3.88;;;10.50;99.90;;;;;;5111300;28;20118;-82
2023/10/26 09:04:13;;;;;;;4.25;3.60;;;10.50;99.90;;;;;;5111783;28;20477;-83
2023/10/26 09:06:49;;;;;;;6.18;3.88;;;10.70;99.90;;;;;;5111487;28;20028;-83
2023/10/26 09:09:15;;;;;;;5.72;3.88;;;10.80;99.90;;;;;;5108343;28;20019;-82
2023/10/26 09:11:42;;;;;;;5.53;4.07;;;11.00;99.90;;;;;;5107951;28;20023;-82
2023/10/26 09:14:15;;;;;;;4.93;3.97;;;11.10;99.90;;;;;;5110653;28;20023;-77
2023/10/26 09:16:44;;;;;;;8.30;4.45;;;11.30;99.90;;;;;;5112554;28;20227;-83
2023/10/26 09:19:11;;;;;;;7.30;4.03;;;11.40;99.90;;;;;;5109737;28;20012;-82
2023/10/26 09:21:57;;;;;;;4.13;3.58;;;11.60;99.90;;;;;;5109509;28;20495;-83
2023/10/26 09:24:27;;;;;;;4.78;3.50;;;11.60;99.90;;;;;;5110600;28;20042;-83
2023/10/26 09:26:54;;;;;;;4.90;3.22;;;11.70;99.90;;;;;;5110200;28;20023;-83
2023/10/26 09:29:20;;;;;;;7.28;4.05;;;11.80;99.90;;;;;;5110333;28;20054;-83
2023/10/26 09:31:54;;;;;;;5.35;2.92;;;11.90;99.90;;;;;;5113993;28;20077;-84
2023/10/26 09:34:24;;;;;;;4.63;2.53;;;11.90;99.90;;;;;;5113135;27;20016;-84
2023/10/26 09:36:58;;;;;;;4.20;3.40;;;12.00;99.90;;;;;;5113619;28;20031;-83
2023/10/26 09:39:28;;;;;;;4.80;2.63;;;12.10;99.90;;;;;;5113960;28;20040;-83
2023/10/26 09:41:55;;;;;;;5.45;3.03;;;12.20;99.90;;;;;;5113963;28;20088;-83
2023/10/26 09:44:21;;;;;;;3.40;2.63;;;12.30;99.90;;;;;;5114215;28;20019;-84
2023/10/26 09:46:47;;;;;;;3.60;2.25;;;12.40;99.90;;;;;;5114661;28;20522;-83
2023/10/26 09:49:13;;;;;;;5.70;2.72;;;12.60;99.90;;;;;;5115329;28;20035;-83
2023/10/26 09:51:39;;;;;;;2.83;2.15;;;12.70;99.90;;;;;;5115240;28;20035;-83
2023/10/26 09:54:08;;;;;;;2.42;2.10;;;12.70;99.90;;;;;;5113926;28;20039;-82
2023/10/26 09:56:36;;;;;;;3.33;2.08;;;12.80;99.90;;;;;;5113863;28;20020;-82
2023/10/26 09:59:03;;;;;;;2.72;2.05;;;12.80;99.90;;;;;;5115091;28;20030;-83
2023/10/26 10:01:42;;;;;;;2.85;1.80;;;12.70;99.90;;;;;;5113479;28;20507;-82
2023/10/26 10:04:11;;;;;;;2.10;1.90;;;12.70;99.90;;;;;;5113799;28;20023;-83
2023/10/26 10:06:51;;;;;;;2.67;1.92;;;12.70;99.90;;;;;;5112710;28;20069;-83
2023/10/26 10:09:27;;;;;;;3.33;1.80;;;12.60;99.90;;;;;;5115064;28;20051;-83
2023/10/26 10:12:09;;;;;;;2.17;1.63;;;12.70;99.90;;;;;;5113630;28;20027;-83
2023/10/26 10:14:47;;;;;;;3.03;2.15;;;12.70;99.90;;;;;;5112614;28;20023;-83
2023/10/26 10:17:13;;;;;;;2.35;1.52;;;12.80;99.90;;;;;;5110571;28;20022;-83
2023/10/26 10:19:40;;;;;;;2.30;1.60;;;12.80;99.90;;;;;;5113348;28;20016;-83
2023/10/26 10:22:38;;;;;;;2.17;1.80;;;12.90;99.90;;;;;;5113124;28;20122;-83
2023/10/26 10:25:10;;;;;;;2.33;1.50;;;12.90;99.90;;;;;;5104074;28;20549;-82
2023/10/26 10:27:37;;;;;;;1.50;1.30;;;12.90;99.90;;;;;;5095000;28;20016;-83
2023/10/26 10:30:07;;;;;;;1.88;1.70;;;12.90;99.90;;;;;;5114014;28;20461;-82
2023/10/26 10:32:47;;;;;;;1.25;1.15;;;13.00;99.90;;;;;;5114644;28;20024;-83
2023/10/26 10:35:22;;;;;;;2.25;1.45;;;13.10;99.90;;;;;;5111780;28;20054;-83
2023/10/26 10:38:16;;;;;;;2.38;1.27;;;13.10;99.90;;;;;;5114206;28;20031;-83
2023/10/26 10:40:54;;;;;;;1.60;1.45;;;13.20;99.90;;;;;;5109797;28;20088;-83
2023/10/26 10:43:36;;;;;;;1.95;1.15;;;13.20;99.90;;;;;;5112641;28;20027;-78
2023/10/26 10:46:26;;;;;;;4.25;1.70;;;13.20;99.90;;;;;;5102332;28;20119;-82
2023/10/26 10:49:05;;;;;;;1.60;1.50;;;13.20;99.90;;;;;;5111487;28;20026;-83
2023/10/26 10:51:34;;;;;;;2.80;2.05;;;13.30;99.90;;;;;;5109032;28;20477;-84
2023/10/26 10:54:02;;;;;;;2.58;1.40;;;13.20;99.90;;;;;;5104910;28;20069;-82
2023/10/26 10:56:28;;;;;;;1.52;1.42;;;13.30;99.90;;;;;;5111670;28;20107;-83
2023/10/26 10:58:56;;;;;;;1.35;1.25;;;13.40;99.90;;;;;;5115390;28;20045;-84
2023/10/26 11:01:22;;;;;;;1.85;1.48;;;13.40;99.90;;;;;;5112322;28;20733;-77
2023/10/26 11:03:48;;;;;;;3.03;1.60;;;13.50;99.90;;;;;;5113646;28;20031;-83
2023/10/26 11:06:18;;;;;;;2.55;1.15;;;13.50;99.90;;;;;;5108657;28;20039;-83
2023/10/26 11:08:44;;;;;;;1.65;1.55;;;13.50;99.90;;;;;;5114862;28;20019;-77
2023/10/26 11:11:29;;;;;;;2.83;1.60;;;13.50;99.90;;;;;;5113530;28;20421;-83
2023/10/26 11:14:09;;;;;;;2.03;1.50;;;13.50;99.90;;;;;;5114508;28;20051;-77
2023/10/26 11:16:40;;;;;;;2.17;1.80;;;13.60;99.90;;;;;;5108364;28;20020;-83
2023/10/26 11:19:06;;;;;;;1.70;1.60;;;13.60;99.90;;;;;;5108708;28;20045;-77
2023/10/26 11:21:32;;;;;;;2.75;1.38;;;13.70;99.90;;;;;;5114060;28;20968;-77
2023/10/26 11:24:00;;;;;;;2.28;1.70;;;13.70;99.90;;;;;;5114229;28;20362;-77
2023/10/26 11:26:26;;;;;;;1.67;1.50;;;13.70;99.90;;;;;;5112856;28;20024;-82
2023/10/26 11:28:52;;;;;;;4.13;1.50;;;13.80;99.90;;;;;;5112307;28;20396;-77
2023/10/26 11:31:34;;;;;;;1.45;1.20;;;13.90;99.90;;;;;;5104953;28;20627;-77
2023/10/26 11:34:05;;;;;;;3.80;1.48;;;13.90;99.90;;;;;;5109259;28;20028;-82
2023/10/26 11:36:31;;;;;;;1.52;1.42;;;13.90;99.90;;;;;;5108945;28;20447;-77
2023/10/26 11:38:57;;;;;;;2.22;1.50;;;13.90;99.90;;;;;;5112544;28;20024;-77
2023/10/26 11:41:25;;;;;;;1.95;1.33;;;13.90;99.90;;;;;;5111826;28;20035;-77
2023/10/26 11:43:50;;;;;;;4.07;1.85;;;13.90;99.90;;;;;;5111952;28;20023;-77
2023/10/26 11:46:27;;;;;;;2.53;1.45;;;13.80;99.90;;;;;;5111949;28;20072;-77
2023/10/26 11:48:53;;;;;;;2.08;1.50;;;13.80;99.90;;;;;;5110365;28;20477;-77
2023/10/26 11:51:19;;;;;;;2.58;2.08;;;13.70;99.90;;;;;;5113262;28;20028;-77
2023/10/26 11:53:44;;;;;;;2.95;2.67;;;13.60;99.90;;;;;;5112752;28;20020;-77
2023/10/26 11:56:10;;;;;;;5.40;3.45;;;13.60;99.90;;;;;;5111754;28;20031;-77
2023/10/26 11:58:36;;;;;;;7.70;3.05;;;13.50;99.90;;;;;;5112004;28;20016;-77
2023/10/26 12:01:03;;;;;;;6.10;4.05;;;13.50;99.90;;;;;;5107235;28;20128;-77
2023/10/26 12:03:29;;;;;;;8.23;3.13;;;13.60;99.90;;;;;;5109001;28;20445;-82
2023/10/26 12:05:55;;;;;;;3.58;2.40;;;13.50;99.90;;;;;;5106648;28;20047;-77
2023/10/26 12:08:20;;;;;;;9.00;4.50;;;13.50;99.90;;;;;;5106363;28;20016;-76
2023/10/26 12:10:46;;;;;;;7.28;3.80;;;13.50;99.90;;;;;;5111946;28;20024;-77
2023/10/26 12:13:12;;;;;;;5.32;2.75;;;13.50;99.90;;;;;;5108101;28;20437;-76
2023/10/26 12:15:37;;;;;;;8.23;3.50;;;13.50;99.90;;;;;;5111442;28;20161;-77
2023/10/26 12:18:03;;;;;;;4.03;2.47;;;13.50;99.90;;;;;;5109584;28;20016;-77
2023/10/26 12:20:29;;;;;;;4.22;3.08;;;13.50;99.90;;;;;;5107714;28;20024;-83
2023/10/26 12:22:55;;;;;;;5.03;3.13;;;13.50;99.90;;;;;;5109697;28;20040;-78
2023/10/26 12:25:21;;;;;;;4.60;2.13;;;13.50;99.90;;;;;;5109753;28;20032;-79
2023/10/26 12:27:46;;;;;;;3.63;2.15;;;13.50;99.90;;;;;;5110835;28;20023;-79
2023/10/26 12:30:12;;;;;;;3.85;2.20;;;13.60;99.90;;;;;;5107661;28;20051;-83
2023/10/26 12:32:39;;;;;;;3.13;1.98;;;13.60;99.90;;;;;;5110763;28;20093;-79
2023/10/26 12:35:05;;;;;;;3.38;2.17;;;13.60;99.90;;;;;;5110794;28;20023;-79
2023/10/26 12:37:31;;;;;;;4.05;1.98;;;13.60;99.90;;;;;;5102502;28;20045;-79
2023/10/26 12:39:56;;;;;;;3.97;2.38;;;13.70;99.90;;;;;;5112743;28;20098;-79
2023/10/26 12:42:23;;;;;;;2.90;2.00;;;13.70;99.90;;;;;;5099176;28;20034;-79